Time;durP1;ratioP1;P1;durP2;ratioP2;P2;SDS_P1;SDS_P2;PMS_P1;PMS_P2;Temp;Humidity;BMP_temperature;BMP_pressure;BME280_temperature;BME280_humidity;BME280_pressure;Samples;Min_cycle;Max_cycle;Signal;HPM_P1;HPM_P2
2022/04/12 00:00:59;;;;;;;7.50;6.03;;;;;;;8.44;65.84;97862.22;4994082;28;20207;-69
2022/04/12 00:03:26;;;;;;;7.43;6.50;;;;;;;8.42;67.06;97866.91;4994091;28;20261;-69
2022/04/12 00:05:53;;;;;;;8.33;5.67;;;;;;;8.35;67.94;97860.81;4993945;28;20223;-69
2022/04/12 00:08:20;;;;;;;7.20;6.00;;;;;;;8.24;69.39;97859.63;4994845;28;20238;-69
2022/04/12 00:10:47;;;;;;;8.27;6.50;;;;;;;8.16;70.05;97853.72;4997804;28;20241;-69
2022/04/12 00:13:13;;;;;;;7.30;5.87;;;;;;;8.14;70.07;97851.28;4997636;28;20203;-69
2022/04/12 00:15:40;;;;;;;6.47;5.87;;;;;;;8.15;68.79;97857.41;4997578;28;20203;-69
2022/04/12 00:20:53;;;;;;;7.43;5.50;;;;;;;8.06;69.63;97853.34;4997774;28;20178;-69
2022/04/12 00:23:19;;;;;;;6.87;5.93;;;;;;;7.97;71.53;97852.75;4997611;28;20211;-69
2022/04/12 00:25:46;;;;;;;8.10;5.90;;;;;;;7.93;70.87;97858.66;4997057;28;20219;-69
2022/04/12 00:28:16;;;;;;;6.87;5.43;;;;;;;7.96;69.84;97863.56;4996975;28;20231;-69
2022/04/12 00:30:43;;;;;;;7.10;5.47;;;;;;;7.86;71.27;97855.22;4997468;28;20234;-69
2022/04/12 00:33:10;;;;;;;8.23;5.43;;;;;;;7.80;72.30;97859.50;4997427;28;20203;-69
2022/04/12 00:35:36;;;;;;;7.27;5.50;;;;;;;7.74;72.98;97859.53;4997690;28;20211;-69
2022/04/12 00:38:13;;;;;;;8.60;5.83;;;;;;;7.68;74.28;97858.50;4996936;28;20243;-69
2022/04/12 00:40:40;;;;;;;6.40;5.40;;;;;;;7.62;74.03;97854.03;4997028;28;20191;-69
2022/04/12 00:43:07;;;;;;;6.20;5.47;;;;;;;7.61;74.04;97862.19;4997027;28;20724;-69
2022/04/12 00:45:33;;;;;;;5.70;5.10;;;;;;;7.57;75.16;97861.78;4997061;28;20235;-69
2022/04/12 00:47:59;;;;;;;6.53;5.77;;;;;;;7.50;75.80;97863.59;4997101;28;20227;-69
2022/04/12 00:50:26;;;;;;;7.13;5.67;;;;;;;7.50;75.28;97858.31;4997109;28;20211;-69
2022/04/12 00:52:56;;;;;;;6.77;5.37;;;;;;;7.52;76.03;97866.03;4997027;28;20211;-69
2022/04/12 00:55:22;;;;;;;8.47;5.63;;;;;;;7.51;76.10;97859.13;4995800;28;20211;-69
2022/04/12 00:57:49;;;;;;;9.30;5.67;;;;;;;7.48;74.95;97863.00;4996884;28;20752;-69
2022/04/12 01:00:17;;;;;;;7.27;5.80;;;;;;;7.51;75.87;97862.56;4997203;28;20601;-69
2022/04/12 01:02:44;;;;;;;8.80;5.70;;;;;;;7.47;76.50;97860.56;4996962;28;20257;-69
2022/04/12 01:05:10;;;;;;;7.30;6.20;;;;;;;7.45;76.31;97859.94;4996787;28;20226;-69
2022/04/12 01:07:37;;;;;;;7.10;5.87;;;;;;;7.43;77.23;97857.47;4996779;28;20230;-69
2022/04/12 01:10:07;;;;;;;8.53;6.10;;;;;;;7.39;76.91;97855.47;4996479;28;20214;-69
2022/04/12 01:12:39;;;;;;;8.30;5.83;;;;;;;7.37;77.31;97854.88;4996403;28;20208;-68
2022/04/12 01:15:15;;;;;;;6.40;5.67;;;;;;;7.35;77.01;97855.06;4996816;28;20192;-69
2022/04/12 01:17:43;;;;;;;10.00;6.33;;;;;;;7.38;76.78;97849.34;4996637;28;20306;-69
2022/04/12 01:20:10;;;;;;;8.30;6.00;;;;;;;7.39;75.61;97851.00;4996002;28;20554;-69
2022/04/12 01:22:56;;;;;;;7.20;6.23;;;;;;;7.36;76.78;97850.56;4996539;28;20685;-69
2022/04/12 01:25:23;;;;;;;10.73;6.33;;;;;;;7.27;77.82;97846.50;4996572;28;20211;-69
2022/04/12 01:27:50;;;;;;;8.47;6.10;;;;;;;7.18;77.88;97845.06;4996503;28;20230;-69
2022/04/12 01:30:17;;;;;;;7.73;6.30;;;;;;;7.14;78.03;97847.31;4996565;28;20207;-69
2022/04/12 01:32:43;;;;;;;7.13;5.97;;;;;;;7.15;77.50;97842.84;4997300;28;20207;-69
2022/04/12 01:35:10;;;;;;;9.80;6.10;;;;;;;7.16;77.90;97844.47;4996889;28;20212;-69
2022/04/12 01:37:37;;;;;;;8.00;5.60;;;;;;;7.23;77.77;97840.00;4996070;28;20239;-69
2022/04/12 01:40:06;;;;;;;7.80;5.53;;;;;;;7.24;77.72;97850.38;4996354;28;20293;-70
2022/04/12 01:42:32;;;;;;;6.63;5.47;;;;;;;7.24;77.48;97852.22;4996320;28;20286;-69
2022/04/12 01:44:58;;;;;;;6.87;5.27;;;;;;;7.24;76.30;97857.50;4996944;28;20235;-69
2022/04/12 01:47:25;;;;;;;6.77;5.67;;;;;;;7.19;77.17;97863.38;4996497;28;20231;-69
2022/04/12 01:49:51;;;;;;;7.03;5.37;;;;;;;7.13;78.48;97848.34;4996107;28;20215;-69
2022/04/12 01:52:17;;;;;;;7.10;5.50;;;;;;;7.11;78.99;97849.56;4996133;28;20215;-69
2022/04/12 01:54:44;;;;;;;7.80;5.53;;;;;;;7.05;78.28;97850.34;4995736;28;20211;-69
2022/04/12 01:57:10;;;;;;;6.67;5.50;;;;;;;6.99;77.21;97846.69;4995570;28;20603;-70
2022/04/12 01:59:37;;;;;;;7.10;5.17;;;;;;;6.95;79.52;97847.28;4995929;28;20207;-69
2022/04/12 02:02:03;;;;;;;9.87;5.90;;;;;;;6.88;80.33;97842.00;4995913;28;20207;-70
2022/04/12 02:04:29;;;;;;;5.80;5.20;;;;;;;6.90;78.24;97844.44;4995854;28;20222;-69
2022/04/12 02:06:56;;;;;;;10.60;5.93;;;;;;;6.92;78.17;97839.78;4995649;28;20608;-70
2022/04/12 02:09:22;;;;;;;6.20;5.60;;;;;;;6.90;78.70;97845.25;4995729;28;20203;-69
2022/04/12 02:11:48;;;;;;;5.90;5.17;;;;;;;6.88;78.42;97855.19;4995720;28;20211;-69
2022/04/12 02:14:15;;;;;;;8.87;5.93;;;;;;;6.86;79.34;97853.78;4995642;28;20217;-69
2022/04/12 02:16:41;;;;;;;6.73;5.97;;;;;;;6.88;78.98;97849.13;4995559;28;20224;-69
2022/04/12 02:19:08;;;;;;;7.23;5.47;;;;;;;6.95;77.94;97842.00;4995369;28;20223;-69
2022/04/12 02:21:34;;;;;;;8.30;5.63;;;;;;;6.93;78.85;97833.47;4995550;28;20210;-69
2022/04/12 02:24:00;;;;;;;5.47;4.97;;;;;;;6.93;78.93;97825.56;4995502;28;20214;-69
2022/04/12 02:26:27;;;;;;;8.53;5.73;;;;;;;6.88;78.94;97831.41;4995331;28;20229;-69
2022/04/12 02:28:53;;;;;;;5.97;5.37;;;;;;;6.86;78.94;97835.28;4995408;28;20207;-69
2022/04/12 02:31:19;;;;;;;6.63;5.80;;;;;;;6.84;78.92;97830.19;4994261;28;20211;-69
2022/04/12 02:33:46;;;;;;;7.50;5.80;;;;;;;6.85;78.97;97836.31;4995008;28;20658;-69
2022/04/12 02:36:12;;;;;;;6.93;6.00;;;;;;;6.83;78.78;97838.34;4995098;28;20230;-69
2022/04/12 02:38:39;;;;;;;7.57;6.13;;;;;;;6.79;79.39;97827.34;4995028;28;20246;-69
2022/04/12 02:41:05;;;;;;;10.70;6.40;;;;;;;6.78;79.29;97841.56;4995138;28;20207;-69
2022/04/12 02:43:31;;;;;;;7.60;5.73;;;;;;;6.75;79.28;97838.53;4995339;28;20215;-69
2022/04/12 02:45:59;;;;;;;7.47;6.13;;;;;;;6.73;79.82;97832.59;4994996;28;20238;-69
2022/04/12 02:48:25;;;;;;;8.97;6.07;;;;;;;6.72;80.09;97828.34;4994897;28;20231;-69
2022/04/12 02:50:52;;;;;;;7.43;5.87;;;;;;;6.70;79.78;97833.03;4994998;28;20214;-69
2022/04/12 02:53:18;;;;;;;11.43;6.87;;;;;;;6.69;79.59;97834.06;4994934;28;20214;-69
2022/04/12 02:55:44;;;;;;;9.40;6.87;;;;;;;6.67;80.84;97834.25;4995081;28;20208;-69
2022/04/12 02:58:11;;;;;;;9.57;6.73;;;;;;;6.65;80.03;97830.97;4994747;28;20238;-69
2022/04/12 03:00:37;;;;;;;8.63;6.57;;;;;;;6.61;81.13;97824.44;4994437;28;20207;-69
2022/04/12 03:03:03;;;;;;;10.97;6.63;;;;;;;6.58;80.91;97831.97;4994967;28;20223;-69
2022/04/12 03:05:30;;;;;;;8.53;6.40;;;;;;;6.59;80.54;97825.66;4994278;28;20227;-69
2022/04/12 03:07:56;;;;;;;11.43;7.00;;;;;;;6.58;80.90;97830.16;4994610;28;20235;-70
2022/04/12 03:10:22;;;;;;;9.30;6.00;;;;;;;6.53;80.50;97827.31;4994573;28;20229;-69
2022/04/12 03:12:50;;;;;;;7.23;6.17;;;;;;;6.55;81.03;97830.53;4994263;28;20563;-69
2022/04/12 03:15:16;;;;;;;6.77;6.13;;;;;;;6.55;80.34;97825.25;4994184;28;20619;-70
2022/04/12 03:17:43;;;;;;;8.60;6.27;;;;;;;6.57;79.57;97827.72;4994449;28;20231;-69
2022/04/12 03:20:10;;;;;;;10.90;6.27;;;;;;;6.57;80.13;97822.44;4994439;28;20211;-70
2022/04/12 03:22:36;;;;;;;8.17;6.30;;;;;;;6.54;79.80;97826.28;4994338;28;20215;-69
2022/04/12 03:25:03;;;;;;;7.50;6.10;;;;;;;6.51;80.75;97820.59;4994181;28;20578;-69
2022/04/12 03:27:29;;;;;;;7.20;5.70;;;;;;;6.48;81.44;97819.16;4994273;28;20238;-69
2022/04/12 03:29:56;;;;;;;9.93;5.77;;;;;;;6.48;81.35;97813.88;4994246;28;20211;-69
2022/04/12 03:32:22;;;;;;;7.93;5.53;;;;;;;6.49;80.88;97814.69;4994496;28;20203;-69
2022/04/12 03:34:50;;;;;;;6.90;5.80;;;;;;;6.43;81.88;97810.19;4994181;28;20208;-69
2022/04/12 03:37:16;;;;;;;8.03;5.57;;;;;;;6.43;80.94;97815.47;4993850;28;20239;-69
2022/04/12 03:39:44;;;;;;;6.83;5.53;;;;;;;6.36;81.65;97814.63;4993621;28;20207;-69
2022/04/12 03:42:11;;;;;;;6.57;5.80;;;;;;;6.35;81.50;97818.28;4993652;28;20211;-69
2022/04/12 03:44:38;;;;;;;8.23;5.50;;;;;;;6.34;81.82;97827.22;4993954;28;20207;-69
2022/04/12 03:47:05;;;;;;;8.17;5.27;;;;;;;6.25;81.01;97816.00;4993790;28;20227;-69
2022/04/12 03:49:31;;;;;;;6.57;5.77;;;;;;;6.24;81.63;97822.31;4994028;28;20295;-69
2022/04/12 03:51:58;;;;;;;8.20;5.87;;;;;;;6.20;82.47;97821.06;4994024;28;20211;-69
2022/04/12 03:54:24;;;;;;;6.30;5.70;;;;;;;6.24;83.03;97827.59;4993935;28;20218;-70
2022/04/12 03:56:50;;;;;;;8.57;5.67;;;;;;;6.21;81.49;97819.25;4993864;28;20229;-69
2022/04/12 03:59:17;;;;;;;6.93;5.70;;;;;;;6.24;82.03;97810.97;4993890;28;20226;-69
2022/04/12 04:01:43;;;;;;;7.07;6.03;;;;;;;6.26;81.14;97819.47;4993760;28;20211;-69
2022/04/12 04:04:10;;;;;;;7.90;5.43;;;;;;;6.27;80.66;97816.66;4993554;28;20224;-69
2022/04/12 04:06:37;;;;;;;8.40;5.97;;;;;;;6.26;80.73;97814.19;4993270;28;20565;-69
2022/04/12 04:09:03;;;;;;;7.37;5.07;;;;;;;6.34;79.89;97817.47;4993709;28;20207;-69
2022/04/12 04:11:30;;;;;;;7.77;5.67;;;;;;;6.37;80.02;97821.53;4993672;28;20614;-69
2022/04/12 04:13:56;;;;;;;5.63;5.10;;;;;;;6.36;79.97;97817.28;4993524;28;20218;-69
2022/04/12 04:16:23;;;;;;;6.57;5.67;;;;;;;6.34;80.16;97811.41;4993315;28;20243;-69
2022/04/12 04:18:49;;;;;;;6.67;5.33;;;;;;;6.32;80.19;97808.94;4993587;28;20207;-69
2022/04/12 04:21:15;;;;;;;6.20;5.50;;;;;;;6.37;78.92;97810.97;4993179;28;20215;-69
2022/04/12 04:23:42;;;;;;;7.17;5.63;;;;;;;6.31;80.65;97811.78;4993411;28;20212;-69
2022/04/12 04:26:08;;;;;;;8.10;5.53;;;;;;;6.29;80.82;97816.44;4993022;28;20237;-69
2022/04/12 04:28:34;;;;;;;6.97;5.00;;;;;;;6.25;80.37;97812.56;4993414;28;20234;-69
2022/04/12 04:31:01;;;;;;;8.83;6.03;;;;;;;6.21;81.22;97817.44;4993546;28;20245;-69
2022/04/12 04:33:27;;;;;;;7.10;5.33;;;;;;;6.13;82.30;97804.41;4993487;28;20203;-70
2022/04/12 04:35:54;;;;;;;7.47;5.80;;;;;;;6.01;83.72;97807.81;4993415;28;20203;-69
2022/04/12 04:38:20;;;;;;;6.30;5.70;;;;;;;5.96;83.42;97812.84;4993099;28;20243;-69
2022/04/12 04:40:46;;;;;;;7.03;5.20;;;;;;;5.94;83.37;97815.69;4992835;28;20574;-69
2022/04/12 04:43:13;;;;;;;6.53;5.17;;;;;;;5.91;83.75;97817.88;4992922;28;20210;-69
2022/04/12 04:45:40;;;;;;;8.03;5.97;;;;;;;5.92;84.12;97822.97;4992969;28;20330;-70
2022/04/12 04:48:06;;;;;;;6.20;5.50;;;;;;;5.91;83.75;97823.16;4993087;28;20227;-69
2022/04/12 04:50:34;;;;;;;8.17;5.57;;;;;;;5.91;84.10;97820.53;4993380;28;20266;-70
2022/04/12 04:53:02;;;;;;;8.10;5.73;;;;;;;5.89;85.12;97818.09;4993282;28;20298;-69
2022/04/12 04:55:32;;;;;;;7.40;5.70;;;;;;;5.88;84.75;97818.31;4995272;28;20203;-69
2022/04/12 04:58:00;;;;;;;7.73;5.90;;;;;;;5.91;83.98;97812.63;4996562;28;20262;-69
2022/04/12 05:00:29;;;;;;;7.70;6.03;;;;;;;5.90;84.82;97819.72;4996975;28;20214;-70
2022/04/12 05:02:57;;;;;;;9.47;6.10;;;;;;;5.90;84.71;97819.72;4996513;28;20670;-70
2022/04/12 05:05:23;;;;;;;7.30;6.13;;;;;;;5.95;84.22;97822.59;4996326;28;20211;-69
2022/04/12 05:07:52;;;;;;;6.93;5.77;;;;;;;5.94;84.89;97814.88;4996079;28;20223;-70
2022/04/12 05:10:21;;;;;;;7.73;5.73;;;;;;;6.00;84.24;97806.16;4996582;28;20207;-70
2022/04/12 05:12:48;;;;;;;6.07;5.07;;;;;;;6.06;84.03;97803.56;4996305;28;20211;-70
2022/04/12 05:15:15;;;;;;;9.00;5.87;;;;;;;6.13;84.04;97814.13;4996021;28;20309;-69
2022/04/12 05:17:47;;;;;;;9.10;5.50;;;;;;;6.17;83.75;97810.09;4996109;28;20223;-69
2022/04/12 05:20:14;;;;;;;7.93;5.70;;;;;;;6.24;82.96;97811.75;4996247;28;20192;-70
2022/04/12 05:22:40;;;;;;;7.70;5.93;;;;;;;6.27;83.78;97821.09;4995871;28;20215;-69
2022/04/12 05:25:07;;;;;;;8.30;6.10;;;;;;;6.33;82.94;97821.13;4995679;28;20208;-71
2022/04/12 05:27:37;;;;;;;7.73;5.23;;;;;;;6.42;82.56;97822.56;4995292;28;20729;-68
2022/04/12 05:30:07;;;;;;;7.73;5.67;;;;;;;6.44;81.58;97819.75;4995490;28;20309;-68
2022/04/12 05:32:33;;;;;;;10.50;6.37;;;;;;;6.47;82.27;97819.34;4995963;28;20239;-68
2022/04/12 05:35:00;;;;;;;10.53;5.90;;;;;;;6.54;81.73;97821.00;4995850;28;20207;-69
2022/04/12 05:37:28;;;;;;;6.83;6.13;;;;;;;6.62;80.47;97827.91;4995472;28;20262;-69
2022/04/12 05:39:55;;;;;;;9.73;6.50;;;;;;;6.70;80.85;97830.38;4995744;28;20262;-69
2022/04/12 05:42:21;;;;;;;10.00;5.50;;;;;;;6.78;80.72;97828.38;4995476;28;20222;-69
2022/04/12 05:44:48;;;;;;;12.03;6.40;;;;;;;6.90;79.61;97836.50;4995607;28;20212;-68
2022/04/12 05:47:14;;;;;;;8.07;6.03;;;;;;;6.91;80.02;97831.03;4995262;28;20241;-69
2022/04/12 05:49:40;;;;;;;9.77;6.37;;;;;;;7.00;79.44;97834.28;4995808;28;20214;-69
2022/04/12 05:52:08;;;;;;;9.37;5.83;;;;;;;6.99;79.20;97837.94;4996519;28;20214;-69
2022/04/12 05:54:34;;;;;;;10.07;5.57;;;;;;;7.03;76.67;97839.19;4995609;28;20261;-69
2022/04/12 05:57:01;;;;;;;7.80;5.70;;;;;;;7.05;76.41;97845.06;4995279;28;20223;-69
2022/04/12 05:59:27;;;;;;;9.23;6.30;;;;;;;7.12;77.13;97841.44;4995662;28;20207;-68
2022/04/12 06:01:53;;;;;;;7.27;5.80;;;;;;;7.37;75.01;97852.22;4995019;28;20207;-68
2022/04/12 06:04:20;;;;;;;10.90;6.37;;;;;;;7.38;76.78;97853.84;4995281;28;20207;-69
2022/04/12 06:06:46;;;;;;;8.70;5.93;;;;;;;7.45;75.34;97865.22;4994018;28;20242;-69
2022/04/12 06:09:12;;;;;;;7.57;5.40;;;;;;;7.50;74.59;97860.97;4995020;28;20670;-69
2022/04/12 06:11:39;;;;;;;9.20;5.67;;;;;;;7.65;75.14;97848.31;4994862;28;20566;-69
2022/04/12 06:14:05;;;;;;;7.27;5.77;;;;;;;7.87;74.24;97839.13;4995178;28;20207;-69
2022/04/12 06:16:31;;;;;;;6.90;5.73;;;;;;;7.97;74.50;97836.06;4994988;28;20207;-69
2022/04/12 06:18:58;;;;;;;10.00;5.83;;;;;;;8.08;73.49;97825.66;4994652;28;20211;-69
2022/04/12 06:21:24;;;;;;;14.47;6.93;;;;;;;8.24;71.91;97819.91;4994545;28;20208;-69
2022/04/12 06:23:50;;;;;;;9.63;6.20;;;;;;;8.38;71.10;97825.97;4994985;28;20229;-69
2022/04/12 06:26:17;;;;;;;8.77;6.37;;;;;;;8.52;70.15;97830.19;4994584;28;20227;-69
2022/04/12 06:28:43;;;;;;;11.03;6.17;;;;;;;8.52;71.47;97832.84;4994846;28;20282;-69
2022/04/12 06:31:10;;;;;;;14.30;7.00;;;;;;;8.59;70.52;97825.66;4994945;28;20203;-69
2022/04/12 06:33:36;;;;;;;13.07;6.23;;;;;;;8.49;71.54;97826.13;4994933;28;20207;-69
2022/04/12 06:36:03;;;;;;;8.80;6.23;;;;;;;8.47;71.31;97837.97;4994515;28;20215;-69
2022/04/12 06:38:29;;;;;;;7.87;5.80;;;;;;;8.54;71.48;97844.03;4994490;28;20235;-70
2022/04/12 06:40:55;;;;;;;11.87;6.40;;;;;;;8.60;71.87;97843.19;4994177;28;20211;-69
2022/04/12 06:43:28;;;;;;;11.13;6.07;;;;;;;8.65;71.79;97838.88;4993913;28;20239;-68
2022/04/12 06:46:09;;;;;;;12.90;6.57;;;;;;;8.66;71.43;97832.56;4993842;28;20693;-68
2022/04/12 06:49:29;;;;;;;10.73;6.50;;;;;;;8.84;70.33;97834.50;4993391;28;20238;-68
2022/04/12 06:52:14;;;;;;;13.47;6.97;;;;;;;8.91;69.38;97833.41;4979480;28;20203;-67
2022/04/12 06:55:10;;;;;;;11.40;7.57;;;;;;;9.00;68.94;97831.34;4993788;28;20239;-68
2022/04/12 06:58:39;;;;;;;6.37;5.73;;;;;;;9.25;68.19;97827.69;4987691;28;20231;-67
2022/04/12 07:01:07;;;;;;;12.27;6.23;;;;;;;9.27;66.90;97817.66;4926120;29;20563;-67
2022/04/12 07:03:33;;;;;;;10.13;6.13;;;;;;;9.35;66.16;97821.88;4933588;29;20209;-68
2022/04/12 07:05:59;;;;;;;12.20;6.50;;;;;;;9.43;66.33;97824.28;4972757;28;20670;-68
2022/04/12 07:08:26;;;;;;;10.30;6.57;;;;;;;9.52;66.56;97820.31;4993548;28;20233;-69
2022/04/12 07:10:52;;;;;;;7.60;6.53;;;;;;;9.60;66.25;97820.03;4994231;28;20674;-67
2022/04/12 07:13:19;;;;;;;13.97;6.67;;;;;;;9.77;64.51;97823.75;4994153;28;20207;-67
2022/04/12 07:15:52;;;;;;;9.47;6.33;;;;;;;9.92;63.78;97817.03;4994092;28;20277;-67
2022/04/12 07:18:18;;;;;;;10.80;6.20;;;;;;;10.06;64.57;97817.75;4993415;28;20223;-66
2022/04/12 07:20:45;;;;;;;11.77;6.23;;;;;;;10.19;63.65;97820.28;4993953;28;20211;-66
2022/04/12 07:23:12;;;;;;;7.87;6.70;;;;;;;10.31;63.88;97818.47;4993671;28;20203;-67
2022/04/12 07:25:38;;;;;;;8.47;6.07;;;;;;;10.39;62.95;97821.66;4994082;28;20234;-67
2022/04/12 07:28:12;;;;;;;10.40;6.50;;;;;;;10.42;63.56;97820.41;4993652;28;20231;-67
2022/04/12 07:30:41;;;;;;;7.60;6.03;;;;;;;10.57;62.94;97818.16;4993342;28;20270;-67
2022/04/12 07:33:11;;;;;;;9.57;6.73;;;;;;;10.48;64.41;97822.16;4993800;28;20213;-66
2022/04/12 07:35:47;;;;;;;8.37;5.70;;;;;;;10.56;63.02;97828.00;4975777;28;20205;-66
2022/04/12 07:39:05;;;;;;;8.27;6.50;;;;;;;10.86;61.81;97820.03;4993617;28;20366;-66
2022/04/12 07:42:20;;;;;;;;;;;;;;;;;;;;;
2022/04/12 07:44:47;;;;;;;10.53;5.90;;;;;;;10.83;61.16;97820.47;4992411;28;20211;-66
2022/04/12 07:47:24;;;;;;;7.27;5.60;;;;;;;11.13;60.40;97821.25;4993356;28;20231;-66
2022/04/12 07:49:54;;;;;;;7.77;5.60;;;;;;;11.28;59.97;97827.75;4993725;28;20214;-66
2022/04/12 07:52:40;;;;;;;7.73;5.63;;;;;;;11.65;59.86;97820.44;4993896;28;20212;-66
2022/04/12 07:55:33;;;;;;;7.40;5.33;;;;;;;11.63;58.71;97816.38;4994135;28;20716;-66
2022/04/12 07:57:59;;;;;;;6.80;5.60;;;;;;;11.70;58.97;97822.41;4991113;28;20224;-66
2022/04/12 08:31:49;;;;;;;6.33;5.23;;;;;;;12.99;54.27;97824.34;4975860;28;20283;-67
2022/04/12 08:41:16;;;;;;;7.07;4.80;;;;;;;13.33;52.07;97820.66;4955909;29;20277;-67
2022/04/12 08:50:02;;;;;;;6.70;4.97;;;;;;;13.68;52.21;97810.53;4861569;29;20226;-69
2022/04/12 08:52:43;;;;;;;6.47;4.47;;;;;;;13.82;51.81;97813.69;4918650;29;20592;-67
2022/04/12 08:55:16;;;;;;;6.13;4.67;;;;;;;14.08;50.27;97807.66;4970916;28;20219;-68
2022/04/12 08:57:54;;;;;;;8.67;4.87;;;;;;;14.38;50.28;97808.09;5002900;28;20253;-69
2022/04/12 09:01:48;;;;;;;;;;;;;;;;;;;;;
2022/04/12 09:18:15;;;;;;;6.80;4.63;;;;;;;14.76;49.64;97811.47;5037817;22;20300;-68
2022/04/12 09:21:42;;;;;;;;;;;;;;;;;;;;;
2022/04/12 09:36:50;;;;;;;4.47;3.63;;;;;;;15.89;44.50;97798.56;4979003;22;20231;-67
2022/04/12 09:45:04;;;;;;;7.00;3.90;;;;;;;16.54;44.68;97793.56;4936357;28;20209;-67
2022/04/12 09:54:15;;;;;;;5.47;3.53;;;;;;;16.72;43.60;97784.22;4935710;29;20285;-67
2022/04/12 09:57:04;;;;;;;5.43;3.40;;;;;;;16.56;42.83;97777.22;4975994;28;20227;-67
2022/04/12 10:06:17;;;;;;;5.77;2.97;;;;;;;16.87;41.18;97773.53;4888009;29;20288;-67
2022/04/12 10:08:44;;;;;;;5.17;3.57;;;;;;;16.64;41.88;97771.34;4940269;28;20236;-69
2022/04/12 10:11:14;;;;;;;7.57;3.23;;;;;;;16.94;42.65;97764.16;4975937;28;20623;-67
2022/04/12 10:13:44;;;;;;;6.40;3.30;;;;;;;17.10;41.41;97765.78;4975844;28;20231;-67
2022/04/12 10:16:22;;;;;;;7.47;2.77;;;;;;;16.87;41.83;97774.31;4975905;28;20214;-67
2022/04/12 10:19:10;;;;;;;3.57;2.90;;;;;;;17.06;41.58;97769.28;4975740;28;20246;-67
2022/04/12 10:22:05;;;;;;;3.53;2.77;;;;;;;17.04;40.86;97771.41;4975631;28;20298;-67
2022/04/12 10:24:37;;;;;;;2.93;2.53;;;;;;;17.63;40.55;97770.66;4975381;28;20224;-67
2022/04/12 10:27:06;;;;;;;6.73;2.70;;;;;;;17.97;41.01;97760.91;4975602;28;20263;-67
2022/04/12 10:29:38;;;;;;;2.57;2.37;;;;;;;17.99;39.28;97757.94;4975540;28;20296;-67
2022/04/12 10:32:05;;;;;;;2.60;2.37;;;;;;;18.09;37.58;97758.72;4973585;28;20299;-67
2022/04/12 10:35:01;;;;;;;2.37;2.17;;;;;;;17.98;36.67;97759.84;4974272;28;20216;-69
2022/04/12 10:37:39;;;;;;;3.50;2.30;;;;;;;18.25;37.15;97752.22;4975040;28;20231;-69
2022/04/12 10:40:22;;;;;;;2.43;1.93;;;;;;;18.28;35.50;97754.34;4974068;28;20188;-70
2022/04/12 10:43:00;;;;;;;2.33;1.80;;;;;;;18.36;35.48;97748.44;4974937;28;20279;-69
2022/04/12 10:45:38;;;;;;;4.30;1.87;;;;;;;18.43;35.21;97748.13;4974841;28;20215;-70
2022/04/12 10:48:10;;;;;;;3.73;2.10;;;;;;;18.47;35.39;97744.63;4975063;28;20311;-70
2022/04/12 10:50:42;;;;;;;2.30;1.70;;;;;;;18.68;35.29;97746.13;4975086;28;20216;-69
2022/04/12 10:53:13;;;;;;;3.77;1.90;;;;;;;18.92;34.23;97741.66;4974841;28;20631;-68
2022/04/12 10:55:44;;;;;;;2.87;1.80;;;;;;;19.12;33.74;97743.41;4975589;28;20271;-67
2022/04/12 10:58:13;;;;;;;2.70;1.80;;;;;;;19.09;34.28;97734.00;4975852;28;20231;-69
2022/04/12 11:00:46;;;;;;;1.67;1.53;;;;;;;19.05;33.44;97732.16;4975821;28;20298;-69
2022/04/12 11:03:18;;;;;;;3.17;1.90;;;;;;;19.09;33.16;97728.63;4974792;28;20212;-69
2022/04/12 11:08:53;;;;;;;2.20;1.60;;;;;;;19.36;33.63;97715.50;5068236;23;20238;-69
2022/04/12 11:11:41;;;;;;;7.63;1.70;;;;;;;19.35;34.68;97723.84;4993645;28;20214;-68
2022/04/12 11:15:04;;;;;;;3.87;1.77;;;;;;;19.23;33.79;97709.97;4994390;28;20211;-68
2022/04/12 11:18:37;;;;;;;2.57;1.60;;;;;;;19.13;32.25;97713.50;4993832;28;20576;-69
2022/04/12 11:21:50;;;;;;;4.30;1.73;;;;;;;18.96;33.85;97702.31;4934395;29;20209;-69
2022/04/12 11:24:42;;;;;;;6.27;2.10;;;;;;;19.03;33.58;97701.97;4941959;28;20269;-68
2022/04/12 11:27:14;;;;;;;3.67;2.10;;;;;;;18.85;34.65;97702.66;4993991;28;20242;-68
2022/04/12 11:30:05;;;;;;;2.83;2.00;;;;;;;19.11;33.90;97696.81;4994500;28;20207;-68
2022/04/12 11:32:43;;;;;;;3.20;2.10;;;;;;;19.39;33.70;97696.06;4993574;28;20750;-69
2022/04/12 11:35:10;;;;;;;3.43;2.00;;;;;;;19.48;32.99;97697.06;4992971;28;20302;-69
2022/04/12 11:37:40;;;;;;;4.97;2.03;;;;;;;19.23;34.14;97696.47;4993945;28;20230;-68
2022/04/12 11:40:16;;;;;;;5.33;2.00;;;;;;;19.59;34.32;97703.16;4993794;28;20207;-68
2022/04/12 11:42:44;;;;;;;7.70;2.33;;;;;;;19.61;33.27;97698.28;4993584;28;20646;-68
2022/04/12 11:45:14;;;;;;;3.57;1.90;;;;;;;19.71;33.24;97706.25;4993747;28;20716;-69
2022/04/12 11:47:58;;;;;;;1.70;1.60;;;;;;;19.60;32.80;97700.16;4993774;28;20227;-69
2022/04/12 11:53:57;;;;;;;2.33;1.70;;;;;;;20.06;32.82;97695.09;4972487;28;20234;-69
2022/04/12 12:02:14;;;;;;;3.80;1.90;;;;;;;20.03;34.02;97686.78;4992079;28;20630;-69
2022/04/12 12:05:40;;;;;;;2.53;1.57;;;;;;;20.05;32.13;97681.88;4995213;28;20191;-68
2022/04/12 12:08:15;;;;;;;2.70;1.70;;;;;;;20.05;32.35;97680.00;4995798;28;20230;-69
2022/04/12 12:10:42;;;;;;;2.87;1.70;;;;;;;20.12;32.87;97683.16;4997456;28;20203;-69
2022/04/12 12:13:08;;;;;;;2.63;1.60;;;;;;;20.22;32.47;97677.66;4997111;28;20200;-69
2022/04/12 12:15:41;;;;;;;3.73;1.73;;;;;;;20.18;33.29;97675.81;4997247;28;20286;-70
2022/04/12 12:18:18;;;;;;;1.37;1.23;;;;;;;20.52;32.31;97671.84;4997209;28;20270;-69
2022/04/12 12:21:31;;;;;;;2.63;1.60;;;;;;;20.40;32.46;97671.47;4977825;28;20216;-69
2022/04/12 12:23:58;;;;;;;2.73;1.60;;;;;;;20.41;32.97;97666.88;4977285;28;20208;-70
2022/04/12 12:29:10;;;;;;;3.03;1.60;;;;;;;20.48;33.71;97670.03;4976879;28;20232;-69
2022/04/12 12:31:44;;;;;;;3.07;1.57;;;;;;;20.93;32.90;97672.09;4976959;28;20212;-69
2022/04/12 12:35:09;;;;;;;2.97;1.70;;;;;;;20.94;32.54;97669.06;4977921;28;20259;-69
2022/04/12 12:40:53;;;;;;;2.13;1.42;;;;;;;20.82;33.93;97665.19;4975523;28;20204;-69
2022/04/12 12:43:23;;;;;;;1.73;1.40;;;;;;;21.00;33.89;97665.22;4975317;28;20207;-69
2022/04/12 12:46:15;;;;;;;1.63;1.52;;;;;;;20.93;32.99;97662.06;4977317;28;20192;-69
2022/04/12 12:58:37;;;;;;;2.50;1.80;;;;;;;21.39;31.88;97654.78;4964676;28;20351;-69
2022/04/12 13:04:24;;;;;;;3.65;1.40;;;;;;;21.18;33.62;97658.16;4976141;28;20632;-69
2022/04/12 13:07:27;;;;;;;4.68;1.50;;;;;;;21.19;32.35;97657.03;4977052;28;20278;-69
2022/04/12 13:13:33;;;;;;;4.10;1.45;;;;;;;21.43;32.05;97646.91;4942293;28;20295;-69
2022/04/12 13:16:16;;;;;;;2.33;1.40;;;;;;;21.28;32.59;97647.97;4974704;28;20647;-69
2022/04/12 13:19:19;;;;;;;3.28;1.27;;;;;;;21.50;31.38;97644.59;4976957;28;20282;-69
2022/04/12 13:28:28;;;;;;;2.13;1.30;;;;;;;21.85;30.50;97633.16;4916875;29;20233;-69
2022/04/12 13:31:21;;;;;;;2.70;1.33;;;;;;;21.63;30.88;97635.72;4920792;28;20297;-69
2022/04/12 13:37:37;;;;;;;2.28;1.17;;;;;;;21.56;31.12;97632.59;4968767;28;20311;-69
2022/04/12 13:40:34;;;;;;;2.25;1.20;;;;;;;21.54;31.29;97626.69;4976358;28;20196;-69
2022/04/12 13:46:07;;;;;;;3.13;1.20;;;;;;;21.78;31.60;97620.00;4974021;28;20212;-69
2022/04/12 13:48:34;;;;;;;2.50;1.20;;;;;;;21.70;30.48;97609.88;4991775;28;20234;-69
2022/04/12 13:51:00;;;;;;;3.22;1.40;;;;;;;21.53;30.67;97616.97;4995145;28;20261;-69
2022/04/12 13:53:31;;;;;;;3.53;1.30;;;;;;;21.54;29.87;97618.56;4995416;28;20568;-69
2022/04/12 13:55:57;;;;;;;1.75;1.52;;;;;;;21.61;29.87;97616.28;4995407;28;20242;-69
2022/04/12 13:58:24;;;;;;;5.68;1.73;;;;;;;21.79;30.47;97605.38;4994201;28;20314;-69
2022/04/12 14:00:55;;;;;;;3.70;1.58;;;;;;;21.65;30.93;97606.44;4995135;28;20621;-69
2022/04/12 14:03:22;;;;;;;2.85;1.30;;;;;;;21.74;29.38;97604.66;4991645;28;20226;-70
2022/04/12 14:05:50;;;;;;;3.25;1.23;;;;;;;21.67;29.68;97604.25;4994506;28;20239;-70
2022/04/12 14:08:17;;;;;;;5.78;1.60;;;;;;;21.50;30.63;97612.16;4994064;28;20263;-70
2022/04/12 14:10:44;;;;;;;2.88;1.38;;;;;;;21.50;30.59;97612.97;4993409;28;20203;-70
2022/04/12 14:13:11;;;;;;;3.65;1.40;;;;;;;21.74;29.93;97601.97;4994790;28;20207;-70
2022/04/12 14:15:37;;;;;;;2.33;1.20;;;;;;;21.69;29.74;97612.84;4995029;28;20207;-70
2022/04/12 14:18:04;;;;;;;1.85;1.48;;;;;;;21.72;29.45;97606.88;4993948;28;20234;-70
2022/04/12 14:20:30;;;;;;;3.60;1.15;;;;;;;21.48;31.04;97614.34;4995191;28;20670;-69
2022/04/12 14:22:57;;;;;;;5.57;1.60;;;;;;;21.47;31.89;97610.06;4994610;28;20230;-69
2022/04/12 14:25:24;;;;;;;1.58;1.42;;;;;;;21.36;32.16;97605.91;4994882;28;20218;-70